Observation data for Tulia on 03/11/2018      Previous  Date  Next       Current Mesonet Observations  Soil Data  Daily Summary Page  Observations in Plain Language
KTIS 110600Z 02020G28KT 11/M05 A3003 RMK A01 T01131045  RH  033%=      5-min Rain = 0
KTIS 110605Z 02022G31KT 11/M04 A3003 RMK A01 T01121043  RH  034%=      5-min Rain = 0
KTIS 110610Z 02023G29KT 11/M04 A3003 RMK A01 T01111041  RH  035%=      5-min Rain = 0
KTIS 110615Z 02021G29KT 11/M04 A3003 RMK A01 T01101039  RH  035%=      5-min Rain = 0
KTIS 110620Z 02023G31KT 11/M04 A3004 RMK A01 T01101038  RH  036%=      5-min Rain = 0
KTIS 110625Z 02022G29KT 11/M04 A3004 RMK A01 T01101037  RH  036%=      5-min Rain = 0
KTIS 110630Z 02023G29KT 11/M04 A3005 RMK A01 T01091037  RH  036%=      5-min Rain = 0
KTIS 110635Z 02023G32KT 11/M04 A3004 RMK A01 T01081036  RH  036%=      5-min Rain = 0
KTIS 110640Z 02024G34KT 11/M04 A3005 RMK A01 T01081036  RH  037%=      5-min Rain = 0
KTIS 110645Z 02024G32KT 11/M04 A3005 RMK A01 T01081035  RH  037%=      5-min Rain = 0
KTIS 110650Z 02023G29KT 11/M03 A3006 RMK A01 T01071034  RH  037%=      5-min Rain = 0
KTIS 110655Z 02025G35KT 11/M03 A3006 RMK A01 T01061033  RH  038%=      5-min Rain = 0
KTIS 110700Z 02023G29KT 11/M03 A3006 RMK A01 T01051033  RH  038%=      5-min Rain = 0
KTIS 110705Z 02025G32KT 10/M03 A3006 RMK A01 T01041033  RH  038%=      5-min Rain = 0
KTIS 110710Z 02023G30KT 10/M03 A3007 RMK A01 T01031032  RH  039%=      5-min Rain = 0
KTIS 110715Z 02024G33KT 10/M03 A3007 RMK A01 T01031031  RH  039%=      5-min Rain = 0
KTIS 110720Z 02023G32KT 10/M03 A3008 RMK A01 T01021030  RH  040%=      5-min Rain = 0
KTIS 110725Z 02020G30KT 10/M03 A3008 RMK A01 T01011031  RH  040%=      5-min Rain = 0
KTIS 110730Z 02021G27KT 10/M03 A3008 RMK A01 T01001031  RH  040%=      5-min Rain = 0
KTIS 110735Z 02021G26KT 10/M03 A3008 RMK A01 T00991032  RH  040%=      5-min Rain = 0
KTIS 110740Z 02018G28KT 10/M03 A3008 RMK A01 T00981032  RH  040%=      5-min Rain = 0
KTIS 110745Z 02019G24KT 10/M03 A3008 RMK A01 T00981033  RH  040%=      5-min Rain = 0
KTIS 110750Z 02019G26KT 10/M03 A3008 RMK A01 T00971034  RH  040%=      5-min Rain = 0
KTIS 110755Z 02016G23KT 10/M03 A3008 RMK A01 T00961034  RH  040%=      5-min Rain = 0
KTIS 110800Z 01016G25KT 10/M03 A3008 RMK A01 T00961034  RH  040%=      5-min Rain = 0
KTIS 110805Z 02016G25KT 10/M03 A3008 RMK A01 T00951034  RH  040%=      5-min Rain = 0
KTIS 110810Z 02019G24KT 09/M03 A3009 RMK A01 T00941034  RH  041%=      5-min Rain = 0
KTIS 110815Z 02016G23KT 09/M03 A3009 RMK A01 T00931034  RH  041%=      5-min Rain = 0
KTIS 110820Z 02016G24KT 09/M03 A3009 RMK A01 T00931034  RH  041%=      5-min Rain = 0
KTIS 110825Z 02017G26KT 09/M04 A3009 RMK A01 T00931035  RH  041%=      5-min Rain = 0
KTIS 110830Z 01017G23KT 09/M03 A3009 RMK A01 T00921034  RH  041%=      5-min Rain = 0
KTIS 110835Z 02018G24KT 09/M03 A3009 RMK A01 T00921034  RH  041%=      5-min Rain = 0
KTIS 110840Z 02014G21KT 09/M03 A301 RMK A01 T00911034  RH  042%=      5-min Rain = 0
KTIS 110845Z 02015G20KT 09/M03 A301 RMK A01 T00901034  RH  042%=      5-min Rain = 0
KTIS 110850Z 02015G22KT 09/M03 A301 RMK A01 T00901033  RH  042%=      5-min Rain = 0
KTIS 110855Z 02014G20KT 09/M03 A301 RMK A01 T00901033  RH  042%=      5-min Rain = 0
KTIS 110900Z 02014G21KT 09/M03 A301 RMK A01 T00891033  RH  042%=      5-min Rain = 0
KTIS 110905Z 01012G18KT 09/M03 A301 RMK A01 T00891033  RH  042%=      5-min Rain = 0
KTIS 110910Z 01014G19KT 09/M03 A301 RMK A01 T00881033  RH  043%=      5-min Rain = 0
KTIS 110915Z 02013G19KT 09/M03 A301 RMK A01 T00881033  RH  043%=      5-min Rain = 0
KTIS 110920Z 01013G19KT 09/M03 A301 RMK A01 T00871033  RH  043%=      5-min Rain = 0
KTIS 110925Z 01013G18KT 09/M03 A301 RMK A01 T00871034  RH  043%=      5-min Rain = 0
KTIS 110930Z 01013G20KT 09/M04 A301 RMK A01 T00861035  RH  042%=      5-min Rain = 0
KTIS 110935Z 01013G19KT 09/M04 A3011 RMK A01 T00861037  RH  042%=      5-min Rain = 0
KTIS 110940Z 01015G20KT 09/M04 A3011 RMK A01 T00851037  RH  042%=      5-min Rain = 0
KTIS 110945Z 01016KT 08/M04 A3011 RMK A01 T00841037  RH  043%=      5-min Rain = 0
KTIS 110950Z 01017G25KT 08/M04 A3011 RMK A01 T00841036  RH  043%=      5-min Rain = 0
KTIS 110955Z 01018G23KT 08/M04 A3011 RMK A01 T00831037  RH  043%=      5-min Rain = 0
KTIS 111000Z 01017G25KT 08/M04 A3011 RMK A01 T00821039  RH  043%=      5-min Rain = 0
KTIS 111005Z 01018G27KT 08/M04 A3012 RMK A01 T00811040  RH  043%=      5-min Rain = 0
KTIS 111010Z 01018G24KT 08/M04 A3012 RMK A01 T00801041  RH  043%=      5-min Rain = 0
KTIS 111015Z 01016G23KT 08/M04 A3012 RMK A01 T00791041  RH  043%=      5-min Rain = 0
KTIS 111020Z 01017G23KT 08/M04 A3013 RMK A01 T00781042  RH  043%=      5-min Rain = 0
KTIS 111025Z 01017G25KT 08/M04 A3013 RMK A01 T00771044  RH  043%=      5-min Rain = 0
KTIS 111030Z 02017G23KT 08/M04 A3013 RMK A01 T00761043  RH  043%=      5-min Rain = 0
KTIS 111035Z 01017G23KT 08/M04 A3013 RMK A01 T00751042  RH  044%=      5-min Rain = 0
KTIS 111040Z 01015G22KT 07/M04 A3014 RMK A01 T00741042  RH  044%=      5-min Rain = 0
KTIS 111045Z 01015G22KT 07/M04 A3014 RMK A01 T00721043  RH  044%=      5-min Rain = 0
KTIS 111050Z 01018G26KT 07/M05 A3014 RMK A01 T00701046  RH  044%=      5-min Rain = 0
KTIS 111055Z 01019G27KT 07/M05 A3015 RMK A01 T00681050  RH  043%=      5-min Rain = 0
KTIS 111100Z 01017G24KT 07/M05 A3015 RMK A01 T00671052  RH  043%=      5-min Rain = 0
KTIS 111105Z 01015G21KT 07/M05 A3015 RMK A01 T00661052  RH  043%=      5-min Rain = 0
KTIS 111110Z 01015G21KT 07/M05 A3016 RMK A01 T00651052  RH  043%=      5-min Rain = 0
KTIS 111115Z 01015G20KT 06/M05 A3016 RMK A01 T00641053  RH  043%=      5-min Rain = 0
KTIS 111120Z 01014G21KT 06/M05 A3016 RMK A01 T00631054  RH  043%=      5-min Rain = 0
KTIS 111125Z 01020G26KT 06/M06 A3017 RMK A01 T00611056  RH  043%=      5-min Rain = 0
KTIS 111130Z 01018G25KT 06/M06 A3017 RMK A01 T00601057  RH  043%=      5-min Rain = 0
KTIS 111135Z 01017G23KT 06/M06 A3017 RMK A01 T00581058  RH  043%=      5-min Rain = 0
KTIS 111140Z 01015G22KT 06/M06 A3017 RMK A01 T00571059  RH  044%=      5-min Rain = 0
KTIS 111145Z 00019G24KT 06/M06 A3017 RMK A01 T00561059  RH  044%=      5-min Rain = 0
KTIS 111150Z 00019G24KT 06/M06 A3018 RMK A01 T00551060  RH  044%=      5-min Rain = 0
KTIS 111155Z 00022KT 05/M06 A3017 RMK A01 T00541061  RH  044%=      5-min Rain = 0
KTIS 111200Z 00021G26KT 05/M06 A3017 RMK A01 T00521061  RH  044%=      5-min Rain = 0
KTIS 111205Z 01019G26KT 05/M06 A3017 RMK A01 T00511061  RH  045%=      5-min Rain = 0
KTIS 111210Z 01020G28KT 05/M06 A3017 RMK A01 T00491060  RH  046%=      5-min Rain = 0
KTIS 111215Z 01018G24KT 05/M06 A3017 RMK A01 T00481059  RH  046%=      5-min Rain = 0
KTIS 111220Z 01017G24KT 05/M06 A3017 RMK A01 T00461058  RH  047%=      5-min Rain = 0
KTIS 111225Z 01017G23KT 05/M06 A3018 RMK A01 T00451056  RH  048%=      5-min Rain = 0
KTIS 111230Z 01017G25KT 04/M06 A3018 RMK A01 T00431055  RH  050%=      5-min Rain = 0
KTIS 111235Z 01017G25KT 04/M05 A3019 RMK A01 T00421053  RH  050%=      5-min Rain = 0
KTIS 111240Z 01015G21KT 04/M05 A3019 RMK A01 T00411052  RH  051%=      5-min Rain = 0
KTIS 111245Z 01015G24KT 04/M05 A3019 RMK A01 T00401052  RH  052%=      5-min Rain = 0
KTIS 111250Z 01015G22KT 04/M05 A3019 RMK A01 T00391050  RH  053%=      5-min Rain = 0
KTIS 111255Z 01016G23KT 04/M05 A302 RMK A01 T00381048  RH  054%=      5-min Rain = 0
KTIS 111300Z 01017KT 04/M05 A302 RMK A01 T00371047  RH  055%=      5-min Rain = 0
KTIS 111305Z 01016G21KT 04/M05 A3021 RMK A01 T00361048  RH  055%=      5-min Rain = 0
KTIS 111310Z 01013G20KT 04/M05 A3021 RMK A01 T00351048  RH  055%=      5-min Rain = 0
KTIS 111315Z 01016G21KT 03/M05 A3021 RMK A01 T00341048  RH  056%=      5-min Rain = 0
KTIS 111320Z 01015G20KT 03/M05 A3022 RMK A01 T00341047  RH  056%=      5-min Rain = 0
KTIS 111325Z 01014G20KT 03/M05 A3022 RMK A01 T00331045  RH  057%=      5-min Rain = 0
KTIS 111330Z 01014G19KT 03/M04 A3022 RMK A01 T00321043  RH  058%=      5-min Rain = 0
KTIS 111335Z 01016G21KT 03/M04 A3022 RMK A01 T00321041  RH  059%=      5-min Rain = 0
KTIS 111340Z 01018KT 03/M04 A3022 RMK A01 T00321039  RH  060%=      5-min Rain = 0
KTIS 111345Z 01014G19KT 03/M04 A3022 RMK A01 T00321038  RH  061%=      5-min Rain = 0
KTIS 111350Z 00015G21KT 03/M04 A3023 RMK A01 T00321039  RH  061%=      5-min Rain = 0
KTIS 111355Z 01014G23KT 03/M04 A3023 RMK A01 T00311038  RH  061%=      5-min Rain = 0
KTIS 111400Z 01014G20KT 03/M04 A3023 RMK A01 T00311036  RH  062%=      5-min Rain = 0
KTIS 111405Z 01014G19KT 03/M04 A3024 RMK A01 T00311036  RH  062%=      5-min Rain = 0
KTIS 111410Z 01016KT 03/M04 A3024 RMK A01 T00311036  RH  062%=      5-min Rain = 0
KTIS 111415Z 01017G24KT 03/M04 A3024 RMK A01 T00311037  RH  062%=      5-min Rain = 0
KTIS 111420Z 01016G23KT 03/M04 A3025 RMK A01 T00311039  RH  061%=      5-min Rain = 0
KTIS 111425Z 00016G22KT 03/M04 A3025 RMK A01 T00311040  RH  060%=      5-min Rain = 0
KTIS 111430Z 01016G21KT 03/M04 A3025 RMK A01 T00321041  RH  059%=      5-min Rain = 0
KTIS 111435Z 01018G25KT 03/M04 A3025 RMK A01 T00331042  RH  059%=      5-min Rain = 0
KTIS 111440Z 01016G22KT 03/M04 A3025 RMK A01 T00341043  RH  058%=      5-min Rain = 0
KTIS 111445Z 01018G24KT 03/M05 A3025 RMK A01 T00341045  RH  057%=      5-min Rain = 0
KTIS 111450Z 00020G25KT 03/M05 A3026 RMK A01 T00341047  RH  056%=      5-min Rain = 0
KTIS 111455Z 01018G23KT 04/M05 A3026 RMK A01 T00351049  RH  055%=      5-min Rain = 0
KTIS 111500Z 01017G24KT 04/M05 A3026 RMK A01 T00371049  RH  054%=      5-min Rain = 0
KTIS 111505Z 01018G24KT 04/M05 A3026 RMK A01 T00381048  RH  054%=      5-min Rain = 0
KTIS 111510Z 00019G24KT 04/M05 A3026 RMK A01 T00411047  RH  053%=      5-min Rain = 0
KTIS 111515Z 00018KT 04/M05 A3027 RMK A01 T00441047  RH  052%=      5-min Rain = 0
KTIS 111520Z 36020KT 04/M05 A3027 RMK A01 T00431049  RH  052%=      5-min Rain = 0
KTIS 111525Z 36019G24KT 04/M05 A3027 RMK A01 T00431050  RH  052%=      5-min Rain = 0
KTIS 111530Z 00020KT 04/M05 A3027 RMK A01 T00411052  RH  051%=      5-min Rain = 0
KTIS 111535Z 00017G23KT 04/M05 A3027 RMK A01 T00411053  RH  051%=      5-min Rain = 0
KTIS 111540Z 01016G21KT 05/M05 A3028 RMK A01 T00461054  RH  049%=      5-min Rain = 0
KTIS 111545Z 36018G25KT 05/M06 A3028 RMK A01 T00531056  RH  046%=      5-min Rain = 0
KTIS 111550Z 01015G21KT 06/M06 A3029 RMK A01 T00561057  RH  044%=      5-min Rain = 0
KTIS 111555Z 00018G25KT 05/M06 A3029 RMK A01 T00541061  RH  044%=      5-min Rain = 0
KTIS 111600Z 01017G25KT 05/M06 A303 RMK A01 T00531064  RH  043%=      5-min Rain = 0
KTIS 111605Z 00018G23KT 05/M07 A303 RMK A01 T00541066  RH  042%=      5-min Rain = 0
KTIS 111610Z 01019G24KT 06/M07 A303 RMK A01 T00571071  RH  040%=      5-min Rain = 0
KTIS 111615Z 01015KT 06/M07 A303 RMK A01 T00591067  RH  040%=      5-min Rain = 0
KTIS 111620Z 01016G23KT 06/M07 A303 RMK A01 T00621065  RH  040%=      5-min Rain = 0
KTIS 111625Z 01019G25KT 06/M08 A303 RMK A01 T00641075  RH  037%=      5-min Rain = 0
KTIS 111630Z 01017G22KT 07/M07 A303 RMK A01 T00671072  RH  037%=      5-min Rain = 0
KTIS 111635Z 36018G24KT 07/M07 A303 RMK A01 T00691070  RH  037%=      5-min Rain = 0
KTIS 111640Z 00019G26KT 07/M07 A303 RMK A01 T00711069  RH  037%=      5-min Rain = 0
KTIS 111645Z 01016G23KT 07/M07 A303 RMK A01 T00741067  RH  036%=      5-min Rain = 0
KTIS 111650Z 01016KT 08/M07 A303 RMK A01 T00771066  RH  036%=      5-min Rain = 0
KTIS 111655Z 36015G26KT 08/M06 A3029 RMK A01 T00811063  RH  036%=      5-min Rain = 0
KTIS 111700Z 00018G24KT 08/M06 A3029 RMK A01 T00821063  RH  036%=      5-min Rain = 0
KTIS 111705Z 00019G26KT 09/M06 A3029 RMK A01 T00851061  RH  035%=      5-min Rain = 0
KTIS 111710Z 00021G28KT 08/M07 A3029 RMK A01 T00801066  RH  035%=      5-min Rain = 0
KTIS 111715Z 00019G26KT 08/M06 A3029 RMK A01 T00801064  RH  036%=      5-min Rain = 0
KTIS 111720Z 00019G26KT 08/M06 A3029 RMK A01 T00801064  RH  036%=      5-min Rain = 0
KTIS 111725Z 00018G25KT 08/M07 A303 RMK A01 T00811067  RH  035%=      5-min Rain = 0
KTIS 111730Z 01020G26KT 08/M07 A303 RMK A01 T00801069  RH  034%=      5-min Rain = 0
KTIS 111735Z 01017G24KT 08/M07 A3029 RMK A01 T00771070  RH  035%=      5-min Rain = 0
KTIS 111740Z 01018G24KT 08/M07 A3029 RMK A01 T00841070  RH  033%=      5-min Rain = 0
KTIS 111745Z 01017G25KT 09/M07 A3029 RMK A01 T00851071  RH  033%=      5-min Rain = 0
KTIS 111750Z 01019G27KT 09/M07 A3029 RMK A01 T00851074  RH  032%=      5-min Rain = 0
KTIS 111755Z 01018G23KT 09/M07 A3029 RMK A01 T00861074  RH  032%=      5-min Rain = 0
KTIS 111800Z 02017G22KT 09/M07 A3029 RMK A01 T00901073  RH  031%=      5-min Rain = 0
KTIS 111805Z 01018G27KT 09/M08 A3029 RMK A01 T00891077  RH  031%=      5-min Rain = 0
KTIS 111810Z 01018G26KT 09/M08 A3029 RMK A01 T00931077  RH  030%=      5-min Rain = 0
KTIS 111815Z 01018G24KT 09/M08 A3029 RMK A01 T00921079  RH  029%=      5-min Rain = 0
KTIS 111820Z 00021G27KT 09/M08 A3029 RMK A01 T00931081  RH  029%=      5-min Rain = 0
KTIS 111825Z 00018G26KT 09/M08 A3029 RMK A01 T00931082  RH  029%=      5-min Rain = 0
KTIS 111830Z 36020G25KT 10/M08 A3029 RMK A01 T00971081  RH  028%=      5-min Rain = 0
KTIS 111835Z 36018G26KT 10/M08 A3029 RMK A01 T00991083  RH  027%=      5-min Rain = 0
KTIS 111840Z 01021KT 10/M08 A3028 RMK A01 T00981084  RH  027%=      5-min Rain = 0
KTIS 111845Z 02019G26KT 09/M09 A3028 RMK A01 T00941085  RH  028%=      5-min Rain = 0
KTIS 111850Z 01019G25KT 09/M09 A3028 RMK A01 T00941086  RH  027%=      5-min Rain = 0
KTIS 111855Z 02018G24KT 10/M09 A3028 RMK A01 T00951089  RH  027%=      5-min Rain = 0
KTIS 111900Z 01018G25KT 09/M09 A3028 RMK A01 T00931092  RH  027%=      5-min Rain = 0
KTIS 111905Z 01016G23KT 09/M09 A3028 RMK A01 T00921091  RH  027%=      5-min Rain = 0
KTIS 111910Z 01016G21KT 09/M09 A3028 RMK A01 T00921092  RH  027%=      5-min Rain = 0
KTIS 111915Z 01017G25KT 10/M09 A3028 RMK A01 T00971091  RH  026%=      5-min Rain = 0
KTIS 111920Z 01018G23KT 10/M09 A3028 RMK A01 T00991094  RH  025%=      5-min Rain = 0
KTIS 111925Z 00018KT 10/M09 A3028 RMK A01 T01001093  RH  025%=      5-min Rain = 0
KTIS 111930Z 00018G23KT 11/M10 A3028 RMK A01 T01051095  RH  024%=      5-min Rain = 0
KTIS 111935Z 01018G23KT 11/M10 A3028 RMK A01 T01051095  RH  024%=      5-min Rain = 0
KTIS 111940Z 00018G23KT 11/M10 A3028 RMK A01 T01051095  RH  024%=      5-min Rain = 0
KTIS 111945Z 36015G22KT 11/M09 A3027 RMK A01 T01061093  RH  024%=      5-min Rain = 0
KTIS 111950Z 36015G23KT 11/M09 A3028 RMK A01 T01101093  RH  023%=      5-min Rain = 0
KTIS 111955Z 34017G22KT 11/M09 A3027 RMK A01 T01091094  RH  023%=      5-min Rain = 0
KTIS 112000Z 35017G23KT 11/M10 A3027 RMK A01 T01111095  RH  023%=      5-min Rain = 0
KTIS 112005Z 35015G20KT 11/M09 A3027 RMK A01 T01121094  RH  023%=      5-min Rain = 0
KTIS 112010Z 35017G27KT 11/M10 A3027 RMK A01 T01141095  RH  022%=      5-min Rain = 0
KTIS 112015Z 36013KT 11/M10 A3027 RMK A01 T01141095  RH  022%=      5-min Rain = 0
KTIS 112020Z 35016G22KT 12/M10 A3027 RMK A01 T01181097  RH  021%=      5-min Rain = 0
KTIS 112025Z 36018G25KT 12/M10 A3027 RMK A01 T01171099  RH  021%=      5-min Rain = 0
KTIS 112030Z 00015G20KT 12/M10 A3027 RMK A01 T01171098  RH  021%=      5-min Rain = 0
KTIS 112035Z 36013G20KT 12/M10 A3026 RMK A01 T01181097  RH  021%=      5-min Rain = 0
KTIS 112040Z 35014G22KT 12/M10 A3026 RMK A01 T01191100  RH  021%=      5-min Rain = 0
KTIS 112045Z 35017G22KT 12/M10 A3026 RMK A01 T01231103  RH  020%=      5-min Rain = 0
KTIS 112050Z 36015G27KT 12/M10 A3026 RMK A01 T01201101  RH  021%=      5-min Rain = 0
KTIS 112055Z 36017G24KT 12/M10 A3026 RMK A01 T01191103  RH  020%=      5-min Rain = 0
KTIS 112100Z 34018G23KT 12/M10 A3026 RMK A01 T01201104  RH  020%=      5-min Rain = 0
KTIS 112105Z 34017G23KT 12/M10 A3026 RMK A01 T01191101  RH  021%=      5-min Rain = 0
KTIS 112110Z 34016G21KT 12/M10 A3026 RMK A01 T01211099  RH  021%=      5-min Rain = 0
KTIS 112115Z 35016G22KT 12/M10 A3026 RMK A01 T01161103  RH  021%=      5-min Rain = 0
KTIS 112120Z 36012KT 12/M10 A3026 RMK A01 T01161101  RH  021%=      5-min Rain = 0
KTIS 112125Z 35013G18KT 12/M10 A3025 RMK A01 T01181097  RH  021%=      5-min Rain = 0
KTIS 112130Z 36015G21KT 12/M10 A3025 RMK A01 T01191098  RH  021%=      5-min Rain = 0
KTIS 112135Z 35016G22KT 12/M10 A3025 RMK A01 T01151099  RH  022%=      5-min Rain = 0
KTIS 112140Z 01014G21KT 11/M10 A3025 RMK A01 T01131099  RH  022%=      5-min Rain = 0
KTIS 112145Z 00017G22KT 11/M10 A3025 RMK A01 T01121099  RH  022%=      5-min Rain = 0
KTIS 112150Z 35016KT 12/M10 A3025 RMK A01 T01161096  RH  022%=      5-min Rain = 0
KTIS 112155Z 35014G20KT 12/M10 A3025 RMK A01 T01171095  RH  022%=      5-min Rain = 0
KTIS 112200Z 36014KT 12/M09 A3025 RMK A01 T01191093  RH  022%=      5-min Rain = 0
KTIS 112205Z 01014KT 12/M09 A3025 RMK A01 T01191094  RH  022%=      5-min Rain = 0
KTIS 112210Z 00013G20KT 12/M09 A3025 RMK A01 T01201091  RH  022%=      5-min Rain = 0
KTIS 112215Z 00015G22KT 12/M10 A3025 RMK A01 T01211097  RH  021%=      5-min Rain = 0
KTIS 112220Z 00014KT 12/M10 A3025 RMK A01 T01201101  RH  021%=      5-min Rain = 0
KTIS 112225Z 36015G20KT 12/M10 A3025 RMK A01 T01221099  RH  021%=      5-min Rain = 0
KTIS 112230Z 01014G20KT 12/M10 A3025 RMK A01 T01241104  RH  020%=      5-min Rain = 0
KTIS 112235Z 02014G22KT 12/M11 A3025 RMK A01 T01231108  RH  019%=      5-min Rain = 0
KTIS 112240Z 01013G22KT 12/M12 A3025 RMK A01 T01221117  RH  018%=      5-min Rain = 0
KTIS 112245Z 01014G20KT 12/M12 A3025 RMK A01 T01231121  RH  017%=      5-min Rain = 0
KTIS 112250Z 01015G21KT 13/M12 A3025 RMK A01 T01251122  RH  017%=      5-min Rain = 0
KTIS 112255Z 36014KT 12/M12 A3025 RMK A01 T01211124  RH  017%=      5-min Rain = 0
KTIS 112300Z 00013G19KT 12/M12 A3025 RMK A01 T01181123  RH  018%=      5-min Rain = 0
KTIS 112305Z 00015KT 12/M12 A3025 RMK A01 T01171124  RH  017%=      5-min Rain = 0
KTIS 112310Z 01014G19KT 12/M13 A3026 RMK A01 T01151132  RH  017%=      5-min Rain = 0
KTIS 112315Z 01014KT 11/M14 A3026 RMK A01 T01121137  RH  016%=      5-min Rain = 0
KTIS 112320Z 01014G20KT 11/M14 A3026 RMK A01 T01111137  RH  016%=      5-min Rain = 0
KTIS 112325Z 00014KT 11/M14 A3027 RMK A01 T01091141  RH  016%=      5-min Rain = 0
KTIS 112330Z 00014KT 11/M15 A3027 RMK A01 T01081145  RH  016%=      5-min Rain = 0
KTIS 112335Z 00012KT 11/M14 A3027 RMK A01 T01071143  RH  016%=      5-min Rain = 0
KTIS 112340Z 01009KT 11/M14 A3027 RMK A01 T01071142  RH  016%=      5-min Rain = 0
KTIS 112345Z 35011KT 11/M14 A3027 RMK A01 T01051135  RH  017%=      5-min Rain = 0
KTIS 112350Z 35011KT 10/M13 A3027 RMK A01 T01031130  RH  018%=      5-min Rain = 0
KTIS 112355Z 00010KT 10/M13 A3027 RMK A01 T01031128  RH  018%=      5-min Rain = 0
KTIS 120000Z 02008KT 10/M13 A3028 RMK A01 T01031129  RH  018%=      5-min Rain = 0
KTIS 120005Z 02008KT 10/M13 A3028 RMK A01 T01031131  RH  018%=      5-min Rain = 0
KTIS 120010Z 01011KT 10/M13 A3028 RMK A01 T01021128  RH  019%=      5-min Rain = 0
KTIS 120015Z 01009KT 10/M13 A3028 RMK A01 T01011126  RH  019%=      5-min Rain = 0
KTIS 120020Z 01009KT 10/M13 A3028 RMK A01 T01001127  RH  019%=      5-min Rain = 0
KTIS 120025Z 01008KT 10/M13 A3029 RMK A01 T01001126  RH  019%=      5-min Rain = 0
KTIS 120030Z 01007KT 10/M13 A3029 RMK A01 T00991126  RH  019%=      5-min Rain = 0
KTIS 120035Z 01006KT 10/M13 A3029 RMK A01 T00971127  RH  019%=      5-min Rain = 0
KTIS 120040Z 01006KT 10/M13 A3029 RMK A01 T00951127  RH  020%=      5-min Rain = 0
KTIS 120045Z 00007KT 09/M13 A3029 RMK A01 T00911128  RH  020%=      5-min Rain = 0
KTIS 120050Z 00006KT 09/M13 A3029 RMK A01 T00861128  RH  021%=      5-min Rain = 0
KTIS 120055Z 01005KT 08/M13 A3029 RMK A01 T00831128  RH  021%=      5-min Rain = 0
KTIS 120100Z 01005KT 08/M13 A3029 RMK A01 T00811129  RH  021%=      5-min Rain = 0
KTIS 120105Z 00004KT 07/M13 A3029 RMK A01 T00721129  RH  023%=      5-min Rain = 0
KTIS 120110Z 00004KT 06/M13 A303 RMK A01 T00641126  RH  025%=      5-min Rain = 0
KTIS 120115Z 02005KT 06/M13 A303 RMK A01 T00641126  RH  024%=      5-min Rain = 0
KTIS 120120Z 01005KT 07/M13 A303 RMK A01 T00661131  RH  023%=      5-min Rain = 0
KTIS 120125Z 01005KT 06/M13 A303 RMK A01 T00551130  RH  025%=      5-min Rain = 0
KTIS 120130Z 00005KT 05/M13 A303 RMK A01 T00461130  RH  027%=      5-min Rain = 0
KTIS 120135Z 01006KT 04/M13 A303 RMK A01 T00401131  RH  028%=      5-min Rain = 0
KTIS 120140Z 01005KT 05/M14 A3031 RMK A01 T00461135  RH  026%=      5-min Rain = 0
KTIS 120145Z 02005KT 05/M14 A3031 RMK A01 T00471139  RH  025%=      5-min Rain = 0
KTIS 120150Z 02006KT 05/M14 A3031 RMK A01 T00471140  RH  025%=      5-min Rain = 0
KTIS 120155Z 01005KT 04/M14 A3031 RMK A01 T00421142  RH  025%=      5-min Rain = 0
KTIS 120200Z 02006KT 04/M14 A3032 RMK A01 T00391142  RH  026%=      5-min Rain = 0
KTIS 120205Z 01005KT 04/M14 A3032 RMK A01 T00351139  RH  027%=      5-min Rain = 0
KTIS 120210Z 01005KT 03/M14 A3032 RMK A01 T00321137  RH  028%=      5-min Rain = 0
KTIS 120215Z 02005KT 03/M14 A3033 RMK A01 T00321136  RH  028%=      5-min Rain = 0
KTIS 120220Z 01004KT 03/M14 A3033 RMK A01 T00311137  RH  028%=      5-min Rain = 0
KTIS 120225Z 01004KT 03/M14 A3033 RMK A01 T00291137  RH  029%=      5-min Rain = 0
KTIS 120230Z 00004KT 03/M14 A3033 RMK A01 T00301138  RH  028%=      5-min Rain = 0
KTIS 120235Z 01005KT 03/M14 A3033 RMK A01 T00301139  RH  028%=      5-min Rain = 0
KTIS 120240Z 02006KT 03/M14 A3033 RMK A01 T00331141  RH  027%=      5-min Rain = 0
KTIS 120245Z 02006KT 04/M15 A3033 RMK A01 T00411145  RH  025%=      5-min Rain = 0
KTIS 120250Z 03006KT 04/M15 A3033 RMK A01 T00421148  RH  024%=      5-min Rain = 0
KTIS 120255Z 03007KT 04/M15 A3033 RMK A01 T00421149  RH  024%=      5-min Rain = 0
KTIS 120300Z 03007KT 04/M15 A3033 RMK A01 T00431149  RH  024%=      5-min Rain = 0
KTIS 120305Z 03007KT 04/M15 A3033 RMK A01 T00431151  RH  023%=      5-min Rain = 0
KTIS 120310Z 03007KT 04/M15 A3033 RMK A01 T00441152  RH  023%=      5-min Rain = 0
KTIS 120315Z 03006KT 05/M15 A3033 RMK A01 T00451151  RH  023%=      5-min Rain = 0
KTIS 120320Z 03006KT 04/M15 A3033 RMK A01 T00441149  RH  023%=      5-min Rain = 0
KTIS 120325Z 04007KT 04/M15 A3033 RMK A01 T00441147  RH  024%=      5-min Rain = 0
KTIS 120330Z 03007KT 04/M15 A3034 RMK A01 T00441146  RH  024%=      5-min Rain = 0
KTIS 120335Z 03007KT 04/M15 A3034 RMK A01 T00431145  RH  024%=      5-min Rain = 0
KTIS 120340Z 04007KT 04/M14 A3034 RMK A01 T00421143  RH  025%=      5-min Rain = 0
KTIS 120345Z 04006KT 04/M14 A3035 RMK A01 T00401141  RH  026%=      5-min Rain = 0
KTIS 120350Z 03006KT 04/M14 A3035 RMK A01 T00381139  RH  026%=      5-min Rain = 0
KTIS 120355Z 03006KT 04/M14 A3035 RMK A01 T00381138  RH  027%=      5-min Rain = 0
KTIS 120400Z 03006KT 04/M14 A3035 RMK A01 T00381136  RH  027%=      5-min Rain = 0
KTIS 120405Z 03006KT 04/M13 A3035 RMK A01 T00381134  RH  028%=      5-min Rain = 0
KTIS 120410Z 03006KT 04/M13 A3035 RMK A01 T00371130  RH  029%=      5-min Rain = 0
KTIS 120415Z 03006KT 04/M13 A3035 RMK A01 T00361130  RH  029%=      5-min Rain = 0
KTIS 120420Z 03005KT 03/M13 A3035 RMK A01 T00331127  RH  030%=      5-min Rain = 0
KTIS 120425Z 03005KT 03/M12 A3035 RMK A01 T00321123  RH  031%=      5-min Rain = 0
KTIS 120430Z 03004KT 03/M13 A3035 RMK A01 T00291125  RH  031%=      5-min Rain = 0
KTIS 120435Z 04004KT 03/M13 A3035 RMK A01 T00251125  RH  033%=      5-min Rain = 0
KTIS 120440Z 05005KT 03/M12 A3035 RMK A01 T00251123  RH  033%=      5-min Rain = 0
KTIS 120445Z 05005KT 02/M12 A3035 RMK A01 T00241122  RH  033%=      5-min Rain = 0
KTIS 120450Z 05006KT 02/M12 A3035 RMK A01 T00241115  RH  036%=      5-min Rain = 0
KTIS 120455Z 05007KT 02/M12 A3035 RMK A01 T00221119  RH  035%=      5-min Rain = 0

Page generated in 0.0092 seconds.